sensor_id;sensor_type;location;lat;lon;timestamp;P1;durP1;ratioP1;P2;durP2;ratioP2
297;SDS011;133;49.626;9.680;2023-06-26T00:01:37;8.63;;;7.70;;
297;SDS011;133;49.626;9.680;2023-06-26T00:04:05;10.87;;;8.53;;
297;SDS011;133;49.626;9.680;2023-06-26T00:06:30;12.03;;;8.60;;
297;SDS011;133;49.626;9.680;2023-06-26T00:08:56;8.87;;;8.33;;
297;SDS011;133;49.626;9.680;2023-06-26T00:11:23;8.10;;;7.70;;
297;SDS011;133;49.626;9.680;2023-06-26T00:13:49;8.77;;;8.00;;
297;SDS011;133;49.626;9.680;2023-06-26T00:16:15;9.10;;;8.60;;
297;SDS011;133;49.626;9.680;2023-06-26T00:18:41;8.83;;;8.30;;
297;SDS011;133;49.626;9.680;2023-06-26T00:21:06;12.13;;;9.17;;
297;SDS011;133;49.626;9.680;2023-06-26T00:23:32;10.40;;;9.27;;
297;SDS011;133;49.626;9.680;2023-06-26T00:26:02;12.17;;;9.30;;
297;SDS011;133;49.626;9.680;2023-06-26T00:28:28;10.03;;;9.40;;
297;SDS011;133;49.626;9.680;2023-06-26T00:30:54;10.10;;;9.00;;
297;SDS011;133;49.626;9.680;2023-06-26T00:33:20;11.73;;;8.53;;
297;SDS011;133;49.626;9.680;2023-06-26T00:35:45;10.67;;;8.90;;
297;SDS011;133;49.626;9.680;2023-06-26T00:38:11;8.83;;;8.30;;
297;SDS011;133;49.626;9.680;2023-06-26T00:40:36;9.13;;;8.40;;
297;SDS011;133;49.626;9.680;2023-06-26T00:43:02;11.60;;;9.10;;
297;SDS011;133;49.626;9.680;2023-06-26T00:45:28;10.47;;;9.27;;
297;SDS011;133;49.626;9.680;2023-06-26T00:47:53;9.37;;;8.97;;
297;SDS011;133;49.626;9.680;2023-06-26T00:50:20;12.50;;;9.57;;
297;SDS011;133;49.626;9.680;2023-06-26T00:52:45;9.40;;;8.77;;
297;SDS011;133;49.626;9.680;2023-06-26T00:55:12;11.17;;;9.60;;
297;SDS011;133;49.626;9.680;2023-06-26T00:57:38;11.60;;;8.80;;
297;SDS011;133;49.626;9.680;2023-06-26T01:00:04;9.83;;;8.90;;
297;SDS011;133;49.626;9.680;2023-06-26T01:02:30;11.57;;;9.60;;
297;SDS011;133;49.626;9.680;2023-06-26T01:05:02;11.10;;;9.73;;
297;SDS011;133;49.626;9.680;2023-06-26T01:07:31;12.23;;;9.13;;
297;SDS011;133;49.626;9.680;2023-06-26T01:10:01;9.53;;;8.77;;
297;SDS011;133;49.626;9.680;2023-06-26T01:12:28;9.63;;;9.17;;
297;SDS011;133;49.626;9.680;2023-06-26T01:14:55;9.10;;;8.60;;
297;SDS011;133;49.626;9.680;2023-06-26T01:17:21;9.83;;;9.17;;
297;SDS011;133;49.626;9.680;2023-06-26T01:19:48;9.50;;;8.73;;
297;SDS011;133;49.626;9.680;2023-06-26T01:22:19;12.23;;;9.27;;
297;SDS011;133;49.626;9.680;2023-06-26T01:25:10;12.80;;;10.07;;
297;SDS011;133;49.626;9.680;2023-06-26T01:27:46;11.03;;;9.17;;
297;SDS011;133;49.626;9.680;2023-06-26T01:30:13;10.50;;;9.57;;
297;SDS011;133;49.626;9.680;2023-06-26T01:32:41;11.00;;;9.30;;
297;SDS011;133;49.626;9.680;2023-06-26T01:35:07;13.37;;;9.50;;
297;SDS011;133;49.626;9.680;2023-06-26T01:37:34;11.83;;;9.73;;
297;SDS011;133;49.626;9.680;2023-06-26T01:40:00;12.33;;;9.77;;
297;SDS011;133;49.626;9.680;2023-06-26T01:42:25;10.47;;;9.43;;
297;SDS011;133;49.626;9.680;2023-06-26T01:44:52;11.07;;;9.60;;
297;SDS011;133;49.626;9.680;2023-06-26T01:47:22;12.50;;;9.33;;
297;SDS011;133;49.626;9.680;2023-06-26T01:50:00;10.70;;;9.20;;
297;SDS011;133;49.626;9.680;2023-06-26T01:55:24;11.60;;;10.17;;
297;SDS011;133;49.626;9.680;2023-06-26T01:58:11;12.53;;;9.63;;
297;SDS011;133;49.626;9.680;2023-06-26T02:00:39;10.20;;;9.57;;
297;SDS011;133;49.626;9.680;2023-06-26T02:03:05;10.93;;;8.80;;
297;SDS011;133;49.626;9.680;2023-06-26T02:05:31;10.20;;;9.30;;
297;SDS011;133;49.626;9.680;2023-06-26T02:07:57;9.43;;;9.00;;
297;SDS011;133;49.626;9.680;2023-06-26T02:10:23;10.27;;;9.37;;
297;SDS011;133;49.626;9.680;2023-06-26T02:12:49;10.17;;;8.90;;
297;SDS011;133;49.626;9.680;2023-06-26T02:15:14;10.67;;;10.03;;
297;SDS011;133;49.626;9.680;2023-06-26T02:17:40;11.20;;;9.90;;
297;SDS011;133;49.626;9.680;2023-06-26T02:20:06;10.60;;;9.80;;
297;SDS011;133;49.626;9.680;2023-06-26T02:22:33;12.13;;;10.03;;
297;SDS011;133;49.626;9.680;2023-06-26T02:24:58;12.17;;;10.17;;
297;SDS011;133;49.626;9.680;2023-06-26T02:27:24;12.47;;;9.97;;
297;SDS011;133;49.626;9.680;2023-06-26T02:29:50;10.83;;;9.77;;
297;SDS011;133;49.626;9.680;2023-06-26T02:32:15;12.77;;;10.03;;
297;SDS011;133;49.626;9.680;2023-06-26T02:34:41;10.07;;;9.27;;
297;SDS011;133;49.626;9.680;2023-06-26T02:37:07;11.80;;;9.77;;
297;SDS011;133;49.626;9.680;2023-06-26T02:39:33;9.33;;;8.80;;
297;SDS011;133;49.626;9.680;2023-06-26T02:41:59;10.03;;;9.17;;
297;SDS011;133;49.626;9.680;2023-06-26T02:44:25;11.53;;;10.30;;
297;SDS011;133;49.626;9.680;2023-06-26T02:46:50;11.93;;;10.40;;
297;SDS011;133;49.626;9.680;2023-06-26T02:49:16;10.07;;;9.33;;
297;SDS011;133;49.626;9.680;2023-06-26T02:51:42;12.77;;;9.73;;
297;SDS011;133;49.626;9.680;2023-06-26T02:54:07;13.00;;;10.40;;
297;SDS011;133;49.626;9.680;2023-06-26T02:56:33;13.43;;;9.90;;
297;SDS011;133;49.626;9.680;2023-06-26T02:58:59;12.03;;;10.50;;
297;SDS011;133;49.626;9.680;2023-06-26T03:01:24;12.20;;;9.97;;
297;SDS011;133;49.626;9.680;2023-06-26T03:03:50;11.20;;;9.70;;
297;SDS011;133;49.626;9.680;2023-06-26T03:06:16;11.50;;;9.27;;
297;SDS011;133;49.626;9.680;2023-06-26T03:08:42;13.47;;;10.40;;
297;SDS011;133;49.626;9.680;2023-06-26T03:11:08;11.10;;;9.63;;
297;SDS011;133;49.626;9.680;2023-06-26T03:13:35;12.80;;;10.07;;
297;SDS011;133;49.626;9.680;2023-06-26T03:16:01;13.43;;;9.80;;
297;SDS011;133;49.626;9.680;2023-06-26T03:18:27;10.70;;;9.00;;
297;SDS011;133;49.626;9.680;2023-06-26T03:20:53;11.07;;;8.90;;
297;SDS011;133;49.626;9.680;2023-06-26T03:23:20;10.43;;;8.90;;
297;SDS011;133;49.626;9.680;2023-06-26T03:25:46;10.03;;;8.97;;
297;SDS011;133;49.626;9.680;2023-06-26T03:28:12;10.40;;;9.13;;
297;SDS011;133;49.626;9.680;2023-06-26T03:30:38;10.80;;;9.23;;
297;SDS011;133;49.626;9.680;2023-06-26T03:33:04;10.13;;;8.90;;
297;SDS011;133;49.626;9.680;2023-06-26T03:35:29;11.33;;;9.77;;
297;SDS011;133;49.626;9.680;2023-06-26T03:37:55;12.83;;;10.37;;
297;SDS011;133;49.626;9.680;2023-06-26T03:40:21;12.30;;;10.30;;
297;SDS011;133;49.626;9.680;2023-06-26T03:42:47;11.50;;;10.20;;
297;SDS011;133;49.626;9.680;2023-06-26T03:45:13;12.60;;;9.20;;
297;SDS011;133;49.626;9.680;2023-06-26T03:47:38;11.50;;;9.80;;
297;SDS011;133;49.626;9.680;2023-06-26T03:50:04;9.73;;;9.23;;
297;SDS011;133;49.626;9.680;2023-06-26T03:52:30;11.70;;;10.50;;
297;SDS011;133;49.626;9.680;2023-06-26T03:54:56;11.00;;;9.93;;
297;SDS011;133;49.626;9.680;2023-06-26T03:57:22;12.97;;;9.40;;
297;SDS011;133;49.626;9.680;2023-06-26T03:59:48;11.57;;;10.60;;
297;SDS011;133;49.626;9.680;2023-06-26T04:02:15;12.10;;;10.70;;
297;SDS011;133;49.626;9.680;2023-06-26T04:04:40;11.07;;;9.60;;
297;SDS011;133;49.626;9.680;2023-06-26T04:07:06;11.53;;;9.23;;
297;SDS011;133;49.626;9.680;2023-06-26T04:09:32;10.40;;;9.60;;
297;SDS011;133;49.626;9.680;2023-06-26T04:11:57;11.50;;;9.40;;
297;SDS011;133;49.626;9.680;2023-06-26T04:14:23;12.87;;;9.37;;
297;SDS011;133;49.626;9.680;2023-06-26T04:16:48;11.63;;;9.60;;
297;SDS011;133;49.626;9.680;2023-06-26T04:19:14;10.00;;;9.03;;
297;SDS011;133;49.626;9.680;2023-06-26T04:21:40;10.67;;;9.87;;
297;SDS011;133;49.626;9.680;2023-06-26T04:24:06;12.00;;;10.30;;
297;SDS011;133;49.626;9.680;2023-06-26T04:26:32;11.40;;;9.90;;
297;SDS011;133;49.626;9.680;2023-06-26T04:28:57;12.43;;;10.60;;
297;SDS011;133;49.626;9.680;2023-06-26T04:31:24;11.43;;;10.20;;
297;SDS011;133;49.626;9.680;2023-06-26T04:33:50;10.80;;;9.60;;
297;SDS011;133;49.626;9.680;2023-06-26T04:36:16;11.70;;;9.83;;
297;SDS011;133;49.626;9.680;2023-06-26T04:38:42;14.67;;;10.80;;
297;SDS011;133;49.626;9.680;2023-06-26T04:41:08;11.77;;;9.63;;
297;SDS011;133;49.626;9.680;2023-06-26T04:43:34;15.27;;;10.37;;
297;SDS011;133;49.626;9.680;2023-06-26T04:45:59;15.73;;;10.50;;
297;SDS011;133;49.626;9.680;2023-06-26T04:48:25;11.40;;;8.73;;
297;SDS011;133;49.626;9.680;2023-06-26T04:50:56;12.87;;;9.27;;
297;SDS011;133;49.626;9.680;2023-06-26T04:53:21;12.47;;;10.07;;
297;SDS011;133;49.626;9.680;2023-06-26T04:55:48;11.10;;;10.50;;
297;SDS011;133;49.626;9.680;2023-06-26T04:58:15;15.03;;;10.03;;
297;SDS011;133;49.626;9.680;2023-06-26T05:00:41;11.00;;;9.23;;
297;SDS011;133;49.626;9.680;2023-06-26T05:03:07;11.77;;;9.70;;
297;SDS011;133;49.626;9.680;2023-06-26T05:05:34;11.67;;;9.53;;
297;SDS011;133;49.626;9.680;2023-06-26T05:08:12;13.40;;;10.67;;
297;SDS011;133;49.626;9.680;2023-06-26T05:10:42;12.70;;;10.43;;
297;SDS011;133;49.626;9.680;2023-06-26T05:13:08;11.07;;;10.47;;
297;SDS011;133;49.626;9.680;2023-06-26T05:15:33;10.30;;;9.60;;
297;SDS011;133;49.626;9.680;2023-06-26T05:17:59;14.10;;;10.37;;
297;SDS011;133;49.626;9.680;2023-06-26T05:20:24;11.60;;;8.93;;
297;SDS011;133;49.626;9.680;2023-06-26T05:22:50;11.50;;;9.53;;
297;SDS011;133;49.626;9.680;2023-06-26T05:25:17;11.87;;;9.77;;
297;SDS011;133;49.626;9.680;2023-06-26T05:27:46;14.70;;;10.53;;
297;SDS011;133;49.626;9.680;2023-06-26T05:30:12;12.17;;;9.80;;
297;SDS011;133;49.626;9.680;2023-06-26T05:32:38;10.50;;;9.17;;
297;SDS011;133;49.626;9.680;2023-06-26T05:35:05;11.90;;;9.50;;
297;SDS011;133;49.626;9.680;2023-06-26T05:37:33;10.23;;;9.07;;
297;SDS011;133;49.626;9.680;2023-06-26T05:40:00;12.93;;;9.70;;
297;SDS011;133;49.626;9.680;2023-06-26T05:42:29;11.37;;;8.80;;
297;SDS011;133;49.626;9.680;2023-06-26T05:44:55;10.43;;;9.37;;
297;SDS011;133;49.626;9.680;2023-06-26T05:47:21;10.03;;;9.33;;
297;SDS011;133;49.626;9.680;2023-06-26T05:49:47;9.60;;;9.10;;
297;SDS011;133;49.626;9.680;2023-06-26T05:52:12;9.90;;;9.07;;
297;SDS011;133;49.626;9.680;2023-06-26T05:54:38;9.97;;;9.47;;
297;SDS011;133;49.626;9.680;2023-06-26T05:57:04;11.77;;;9.30;;
297;SDS011;133;49.626;9.680;2023-06-26T05:59:33;12.13;;;8.87;;
297;SDS011;133;49.626;9.680;2023-06-26T06:02:01;12.87;;;9.93;;
297;SDS011;133;49.626;9.680;2023-06-26T06:04:27;10.47;;;8.93;;
297;SDS011;133;49.626;9.680;2023-06-26T06:06:52;11.97;;;9.13;;
297;SDS011;133;49.626;9.680;2023-06-26T06:09:18;10.87;;;8.80;;
297;SDS011;133;49.626;9.680;2023-06-26T06:11:43;13.00;;;10.23;;
297;SDS011;133;49.626;9.680;2023-06-26T06:14:09;11.40;;;9.63;;
297;SDS011;133;49.626;9.680;2023-06-26T06:16:35;11.07;;;9.00;;
297;SDS011;133;49.626;9.680;2023-06-26T06:19:00;10.40;;;9.50;;
297;SDS011;133;49.626;9.680;2023-06-26T06:21:28;9.23;;;8.73;;
297;SDS011;133;49.626;9.680;2023-06-26T06:23:54;10.53;;;9.53;;
297;SDS011;133;49.626;9.680;2023-06-26T06:26:19;11.97;;;9.30;;
297;SDS011;133;49.626;9.680;2023-06-26T06:28:45;11.33;;;9.60;;
297;SDS011;133;49.626;9.680;2023-06-26T06:31:10;12.27;;;9.70;;
297;SDS011;133;49.626;9.680;2023-06-26T06:33:36;10.27;;;9.53;;
297;SDS011;133;49.626;9.680;2023-06-26T06:36:02;14.13;;;9.47;;
297;SDS011;133;49.626;9.680;2023-06-26T06:38:27;10.70;;;9.60;;
297;SDS011;133;49.626;9.680;2023-06-26T06:40:53;12.30;;;9.73;;
297;SDS011;133;49.626;9.680;2023-06-26T06:43:18;11.23;;;9.30;;
297;SDS011;133;49.626;9.680;2023-06-26T06:45:44;11.27;;;9.63;;
297;SDS011;133;49.626;9.680;2023-06-26T06:48:10;11.40;;;9.87;;
297;SDS011;133;49.626;9.680;2023-06-26T06:50:36;10.37;;;9.13;;
297;SDS011;133;49.626;9.680;2023-06-26T06:53:01;10.70;;;9.60;;
297;SDS011;133;49.626;9.680;2023-06-26T06:55:27;9.10;;;8.60;;
297;SDS011;133;49.626;9.680;2023-06-26T06:57:53;13.63;;;9.43;;
297;SDS011;133;49.626;9.680;2023-06-26T07:00:18;10.73;;;8.73;;
297;SDS011;133;49.626;9.680;2023-06-26T07:02:45;10.67;;;9.50;;
297;SDS011;133;49.626;9.680;2023-06-26T07:05:11;13.40;;;10.07;;
297;SDS011;133;49.626;9.680;2023-06-26T07:07:37;11.90;;;9.40;;
297;SDS011;133;49.626;9.680;2023-06-26T07:10:05;10.33;;;9.60;;
297;SDS011;133;49.626;9.680;2023-06-26T07:12:32;9.83;;;9.17;;
297;SDS011;133;49.626;9.680;2023-06-26T07:14:59;16.37;;;8.70;;
297;SDS011;133;49.626;9.680;2023-06-26T07:17:25;11.17;;;9.30;;
297;SDS011;133;49.626;9.680;2023-06-26T07:19:51;10.23;;;8.97;;
297;SDS011;133;49.626;9.680;2023-06-26T07:22:17;12.00;;;8.70;;
297;SDS011;133;49.626;9.680;2023-06-26T07:24:45;11.83;;;9.60;;
297;SDS011;133;49.626;9.680;2023-06-26T07:27:14;13.63;;;10.17;;
297;SDS011;133;49.626;9.680;2023-06-26T07:29:41;10.03;;;8.93;;
297;SDS011;133;49.626;9.680;2023-06-26T07:32:07;9.93;;;9.30;;
297;SDS011;133;49.626;9.680;2023-06-26T07:34:33;11.13;;;9.77;;
297;SDS011;133;49.626;9.680;2023-06-26T07:36:59;11.50;;;10.03;;
297;SDS011;133;49.626;9.680;2023-06-26T07:39:24;12.20;;;9.80;;
297;SDS011;133;49.626;9.680;2023-06-26T07:41:50;12.00;;;9.43;;
297;SDS011;133;49.626;9.680;2023-06-26T07:44:16;10.33;;;9.40;;
297;SDS011;133;49.626;9.680;2023-06-26T07:46:42;10.13;;;8.93;;
297;SDS011;133;49.626;9.680;2023-06-26T07:49:07;10.60;;;9.67;;
297;SDS011;133;49.626;9.680;2023-06-26T07:51:33;10.97;;;9.10;;
297;SDS011;133;49.626;9.680;2023-06-26T07:53:59;12.60;;;9.23;;
297;SDS011;133;49.626;9.680;2023-06-26T07:56:24;11.20;;;9.50;;
297;SDS011;133;49.626;9.680;2023-06-26T07:58:50;9.70;;;8.80;;
297;SDS011;133;49.626;9.680;2023-06-26T08:01:16;12.10;;;9.37;;
297;SDS011;133;49.626;9.680;2023-06-26T08:03:42;11.07;;;9.23;;
297;SDS011;133;49.626;9.680;2023-06-26T08:06:08;10.20;;;9.03;;
297;SDS011;133;49.626;9.680;2023-06-26T08:08:33;12.17;;;10.23;;
297;SDS011;133;49.626;9.680;2023-06-26T08:10:59;10.23;;;8.80;;
297;SDS011;133;49.626;9.680;2023-06-26T08:13:25;8.77;;;8.30;;
297;SDS011;133;49.626;9.680;2023-06-26T08:15:50;11.77;;;8.60;;
297;SDS011;133;49.626;9.680;2023-06-26T08:18:17;10.50;;;9.40;;
297;SDS011;133;49.626;9.680;2023-06-26T08:20:43;12.43;;;9.70;;
297;SDS011;133;49.626;9.680;2023-06-26T08:23:09;11.40;;;9.37;;
297;SDS011;133;49.626;9.680;2023-06-26T08:25:34;9.53;;;8.50;;
297;SDS011;133;49.626;9.680;2023-06-26T08:28:00;10.90;;;9.67;;
297;SDS011;133;49.626;9.680;2023-06-26T08:30:26;9.30;;;8.90;;
297;SDS011;133;49.626;9.680;2023-06-26T08:32:53;11.67;;;9.00;;
297;SDS011;133;49.626;9.680;2023-06-26T08:35:20;10.93;;;9.13;;
297;SDS011;133;49.626;9.680;2023-06-26T08:37:46;9.83;;;9.03;;
297;SDS011;133;49.626;9.680;2023-06-26T08:40:12;10.53;;;8.93;;
297;SDS011;133;49.626;9.680;2023-06-26T08:42:41;9.40;;;7.87;;
297;SDS011;133;49.626;9.680;2023-06-26T08:45:07;9.73;;;9.10;;
297;SDS011;133;49.626;9.680;2023-06-26T08:47:33;9.93;;;9.10;;
297;SDS011;133;49.626;9.680;2023-06-26T08:52:43;8.53;;;8.03;;
297;SDS011;133;49.626;9.680;2023-06-26T08:55:29;8.10;;;7.13;;
297;SDS011;133;49.626;9.680;2023-06-26T08:57:58;6.90;;;6.50;;
297;SDS011;133;49.626;9.680;2023-06-26T09:00:25;7.53;;;7.13;;
297;SDS011;133;49.626;9.680;2023-06-26T09:02:51;7.73;;;7.33;;
297;SDS011;133;49.626;9.680;2023-06-26T09:05:17;8.37;;;7.40;;
297;SDS011;133;49.626;9.680;2023-06-26T09:07:44;7.75;;;7.35;;
297;SDS011;133;49.626;9.680;2023-06-26T09:10:10;7.60;;;7.20;;
297;SDS011;133;49.626;9.680;2023-06-26T09:12:48;7.40;;;7.00;;
297;SDS011;133;49.626;9.680;2023-06-26T09:15:14;7.50;;;7.10;;
297;SDS011;133;49.626;9.680;2023-06-26T09:17:41;7.25;;;6.85;;
297;SDS011;133;49.626;9.680;2023-06-26T09:20:07;7.40;;;7.00;;
297;SDS011;133;49.626;9.680;2023-06-26T09:22:40;7.53;;;7.13;;
297;SDS011;133;49.626;9.680;2023-06-26T09:25:07;8.23;;;6.78;;
297;SDS011;133;49.626;9.680;2023-06-26T09:27:34;6.60;;;6.20;;
297;SDS011;133;49.626;9.680;2023-06-26T09:30:01;6.00;;;5.70;;
297;SDS011;133;49.626;9.680;2023-06-26T09:32:27;7.32;;;6.93;;
297;SDS011;133;49.626;9.680;2023-06-26T09:34:53;7.53;;;7.07;;
297;SDS011;133;49.626;9.680;2023-06-26T09:37:25;6.90;;;6.50;;
297;SDS011;133;49.626;9.680;2023-06-26T09:39:51;6.20;;;5.90;;
297;SDS011;133;49.626;9.680;2023-06-26T09:42:17;6.05;;;5.75;;
297;SDS011;133;49.626;9.680;2023-06-26T09:44:44;6.53;;;6.13;;
297;SDS011;133;49.626;9.680;2023-06-26T09:47:11;5.70;;;5.40;;
297;SDS011;133;49.626;9.680;2023-06-26T09:49:40;6.07;;;5.80;;
297;SDS011;133;49.626;9.680;2023-06-26T09:52:07;5.97;;;5.68;;
297;SDS011;133;49.626;9.680;2023-06-26T09:54:33;6.18;;;5.88;;
297;SDS011;133;49.626;9.680;2023-06-26T09:57:07;5.53;;;5.22;;
297;SDS011;133;49.626;9.680;2023-06-26T09:59:33;6.07;;;5.78;;
297;SDS011;133;49.626;9.680;2023-06-26T10:02:00;7.10;;;6.45;;
297;SDS011;133;49.626;9.680;2023-06-26T10:04:25;5.93;;;5.63;;
297;SDS011;133;49.626;9.680;2023-06-26T10:06:51;6.95;;;6.55;;
297;SDS011;133;49.626;9.680;2023-06-26T10:09:22;7.68;;;6.57;;
297;SDS011;133;49.626;9.680;2023-06-26T10:12:00;6.80;;;6.40;;
297;SDS011;133;49.626;9.680;2023-06-26T10:14:33;7.28;;;6.88;;
297;SDS011;133;49.626;9.680;2023-06-26T10:17:06;6.68;;;6.25;;
297;SDS011;133;49.626;9.680;2023-06-26T10:19:40;7.13;;;6.60;;
297;SDS011;133;49.626;9.680;2023-06-26T10:22:09;7.57;;;6.90;;
297;SDS011;133;49.626;9.680;2023-06-26T10:24:40;7.43;;;7.03;;
297;SDS011;133;49.626;9.680;2023-06-26T10:27:19;7.25;;;6.85;;
297;SDS011;133;49.626;9.680;2023-06-26T10:29:51;7.22;;;6.82;;
297;SDS011;133;49.626;9.680;2023-06-26T10:32:21;8.97;;;7.73;;
297;SDS011;133;49.626;9.680;2023-06-26T10:34:50;7.47;;;7.07;;
297;SDS011;133;49.626;9.680;2023-06-26T10:37:19;7.90;;;7.50;;
297;SDS011;133;49.626;9.680;2023-06-26T10:39:51;7.30;;;6.90;;
297;SDS011;133;49.626;9.680;2023-06-26T10:42:20;7.20;;;6.77;;
297;SDS011;133;49.626;9.680;2023-06-26T10:47:54;7.10;;;6.70;;
297;SDS011;133;49.626;9.680;2023-06-26T10:50:27;6.50;;;6.10;;
297;SDS011;133;49.626;9.680;2023-06-26T11:02:01;7.33;;;6.93;;
297;SDS011;133;49.626;9.680;2023-06-26T11:04:38;7.60;;;7.20;;
297;SDS011;133;49.626;9.680;2023-06-26T11:07:14;8.00;;;7.63;;
297;SDS011;133;49.626;9.680;2023-06-26T11:10:00;7.70;;;7.30;;
297;SDS011;133;49.626;9.680;2023-06-26T11:12:43;8.10;;;7.70;;
297;SDS011;133;49.626;9.680;2023-06-26T11:15:13;7.30;;;6.90;;
297;SDS011;133;49.626;9.680;2023-06-26T11:17:44;7.37;;;6.97;;
297;SDS011;133;49.626;9.680;2023-06-26T11:22:48;7.83;;;7.43;;
297;SDS011;133;49.626;9.680;2023-06-26T11:25:18;7.80;;;7.40;;
297;SDS011;133;49.626;9.680;2023-06-26T11:27:45;7.70;;;7.30;;
297;SDS011;133;49.626;9.680;2023-06-26T11:30:11;7.77;;;7.37;;
297;SDS011;133;49.626;9.680;2023-06-26T11:32:48;7.83;;;7.43;;
297;SDS011;133;49.626;9.680;2023-06-26T11:35:23;7.70;;;7.30;;
297;SDS011;133;49.626;9.680;2023-06-26T11:37:58;6.93;;;6.53;;
297;SDS011;133;49.626;9.680;2023-06-26T11:40:31;7.13;;;6.70;;
297;SDS011;133;49.626;9.680;2023-06-26T11:42:59;8.93;;;7.60;;
297;SDS011;133;49.626;9.680;2023-06-26T11:45:30;7.63;;;7.23;;
297;SDS011;133;49.626;9.680;2023-06-26T11:47:56;8.47;;;7.33;;
297;SDS011;133;49.626;9.680;2023-06-26T11:50:26;7.90;;;6.87;;
297;SDS011;133;49.626;9.680;2023-06-26T11:55:41;8.20;;;7.80;;
297;SDS011;133;49.626;9.680;2023-06-26T11:58:17;8.50;;;8.00;;
297;SDS011;133;49.626;9.680;2023-06-26T12:00:42;9.40;;;8.90;;
297;SDS011;133;49.626;9.680;2023-06-26T12:03:08;8.90;;;8.40;;
297;SDS011;133;49.626;9.680;2023-06-26T12:05:37;9.07;;;8.03;;
297;SDS011;133;49.626;9.680;2023-06-26T12:08:03;8.00;;;7.60;;
297;SDS011;133;49.626;9.680;2023-06-26T12:20:27;9.43;;;8.60;;
297;SDS011;133;49.626;9.680;2023-06-26T12:29:33;8.80;;;8.30;;
297;SDS011;133;49.626;9.680;2023-06-26T12:31:59;9.90;;;9.40;;
297;SDS011;133;49.626;9.680;2023-06-26T12:34:31;12.13;;;9.70;;
297;SDS011;133;49.626;9.680;2023-06-26T12:37:01;9.93;;;9.43;;
297;SDS011;133;49.626;9.680;2023-06-26T12:39:28;10.40;;;9.70;;
297;SDS011;133;49.626;9.680;2023-06-26T12:42:00;10.27;;;9.20;;
297;SDS011;133;49.626;9.680;2023-06-26T12:44:27;8.97;;;8.47;;
297;SDS011;133;49.626;9.680;2023-06-26T12:46:58;11.63;;;8.70;;
297;SDS011;133;49.626;9.680;2023-06-26T12:49:35;8.60;;;8.10;;
297;SDS011;133;49.626;9.680;2023-06-26T12:52:03;10.50;;;9.27;;
297;SDS011;133;49.626;9.680;2023-06-26T12:54:34;12.33;;;9.33;;
297;SDS011;133;49.626;9.680;2023-06-26T12:57:00;9.60;;;9.10;;
297;SDS011;133;49.626;9.680;2023-06-26T12:59:26;11.07;;;9.40;;
297;SDS011;133;49.626;9.680;2023-06-26T13:01:52;10.37;;;9.90;;
297;SDS011;133;49.626;9.680;2023-06-26T13:04:17;12.50;;;10.10;;
297;SDS011;133;49.626;9.680;2023-06-26T13:06:43;9.20;;;8.70;;
297;SDS011;133;49.626;9.680;2023-06-26T13:09:09;10.40;;;9.10;;
297;SDS011;133;49.626;9.680;2023-06-26T13:11:36;9.13;;;8.63;;
297;SDS011;133;49.626;9.680;2023-06-26T13:14:02;9.93;;;8.80;;
297;SDS011;133;49.626;9.680;2023-06-26T13:16:29;9.13;;;8.63;;
297;SDS011;133;49.626;9.680;2023-06-26T13:18:55;10.53;;;8.03;;
297;SDS011;133;49.626;9.680;2023-06-26T13:21:23;8.50;;;8.00;;
297;SDS011;133;49.626;9.680;2023-06-26T13:23:49;11.73;;;8.83;;
297;SDS011;133;49.626;9.680;2023-06-26T13:26:15;10.47;;;8.50;;
297;SDS011;133;49.626;9.680;2023-06-26T13:28:41;9.17;;;8.70;;
297;SDS011;133;49.626;9.680;2023-06-26T13:31:06;12.10;;;9.17;;
297;SDS011;133;49.626;9.680;2023-06-26T13:33:32;8.67;;;8.17;;
297;SDS011;133;49.626;9.680;2023-06-26T13:35:58;13.33;;;10.37;;
297;SDS011;133;49.626;9.680;2023-06-26T13:38:24;9.23;;;8.70;;
297;SDS011;133;49.626;9.680;2023-06-26T13:40:54;9.17;;;8.67;;
297;SDS011;133;49.626;9.680;2023-06-26T13:43:24;14.23;;;9.07;;
297;SDS011;133;49.626;9.680;2023-06-26T13:45:50;11.67;;;8.87;;
297;SDS011;133;49.626;9.680;2023-06-26T13:48:16;9.33;;;8.83;;
297;SDS011;133;49.626;9.680;2023-06-26T13:50:42;10.20;;;7.90;;
297;SDS011;133;49.626;9.680;2023-06-26T13:53:08;10.00;;;8.80;;
297;SDS011;133;49.626;9.680;2023-06-26T13:55:34;9.20;;;7.97;;
297;SDS011;133;49.626;9.680;2023-06-26T13:58:00;9.70;;;8.30;;
297;SDS011;133;49.626;9.680;2023-06-26T14:00:30;9.93;;;8.60;;
297;SDS011;133;49.626;9.680;2023-06-26T14:02:56;9.87;;;9.43;;
297;SDS011;133;49.626;9.680;2023-06-26T14:05:24;9.80;;;8.97;;
297;SDS011;133;49.626;9.680;2023-06-26T14:07:50;8.40;;;7.80;;
297;SDS011;133;49.626;9.680;2023-06-26T14:10:16;10.00;;;7.97;;
297;SDS011;133;49.626;9.680;2023-06-26T14:12:42;9.40;;;8.60;;
297;SDS011;133;49.626;9.680;2023-06-26T14:15:08;12.10;;;7.90;;
297;SDS011;133;49.626;9.680;2023-06-26T14:17:34;9.50;;;8.70;;
297;SDS011;133;49.626;9.680;2023-06-26T14:19:59;9.20;;;8.70;;
297;SDS011;133;49.626;9.680;2023-06-26T14:22:25;8.50;;;8.00;;
297;SDS011;133;49.626;9.680;2023-06-26T14:24:51;9.90;;;8.87;;
297;SDS011;133;49.626;9.680;2023-06-26T14:27:16;8.77;;;8.27;;
297;SDS011;133;49.626;9.680;2023-06-26T14:29:42;15.60;;;9.20;;
297;SDS011;133;49.626;9.680;2023-06-26T14:32:11;8.20;;;7.70;;
297;SDS011;133;49.626;9.680;2023-06-26T14:34:36;11.13;;;8.70;;
297;SDS011;133;49.626;9.680;2023-06-26T14:37:02;12.13;;;8.30;;
297;SDS011;133;49.626;9.680;2023-06-26T14:39:28;15.57;;;8.43;;
297;SDS011;133;49.626;9.680;2023-06-26T14:41:57;9.37;;;8.93;;
297;SDS011;133;49.626;9.680;2023-06-26T14:44:23;8.67;;;8.17;;
297;SDS011;133;49.626;9.680;2023-06-26T14:46:48;8.03;;;7.60;;
297;SDS011;133;49.626;9.680;2023-06-26T14:49:14;8.80;;;8.30;;
297;SDS011;133;49.626;9.680;2023-06-26T14:51:40;9.07;;;7.67;;
297;SDS011;133;49.626;9.680;2023-06-26T14:54:06;15.27;;;7.93;;
297;SDS011;133;49.626;9.680;2023-06-26T14:56:32;7.87;;;7.40;;
297;SDS011;133;49.626;9.680;2023-06-26T14:58:57;9.70;;;7.67;;
297;SDS011;133;49.626;9.680;2023-06-26T15:01:23;8.37;;;7.73;;
297;SDS011;133;49.626;9.680;2023-06-26T15:03:51;8.43;;;7.40;;
297;SDS011;133;49.626;9.680;2023-06-26T15:06:19;9.60;;;7.80;;
297;SDS011;133;49.626;9.680;2023-06-26T15:08:45;11.33;;;7.60;;
297;SDS011;133;49.626;9.680;2023-06-26T15:11:11;9.37;;;7.27;;
297;SDS011;133;49.626;9.680;2023-06-26T15:13:37;9.60;;;7.20;;
297;SDS011;133;49.626;9.680;2023-06-26T15:16:03;10.40;;;7.60;;
297;SDS011;133;49.626;9.680;2023-06-26T15:18:28;10.77;;;7.47;;
297;SDS011;133;49.626;9.680;2023-06-26T15:20:54;8.80;;;7.50;;
297;SDS011;133;49.626;9.680;2023-06-26T15:23:20;10.70;;;8.20;;
297;SDS011;133;49.626;9.680;2023-06-26T15:25:46;11.27;;;8.07;;
297;SDS011;133;49.626;9.680;2023-06-26T15:28:11;8.83;;;8.10;;
297;SDS011;133;49.626;9.680;2023-06-26T15:30:37;10.03;;;8.37;;
297;SDS011;133;49.626;9.680;2023-06-26T15:33:03;11.30;;;8.03;;
297;SDS011;133;49.626;9.680;2023-06-26T15:35:30;19.47;;;9.30;;
297;SDS011;133;49.626;9.680;2023-06-26T15:37:56;13.87;;;8.50;;
297;SDS011;133;49.626;9.680;2023-06-26T15:40:22;10.27;;;8.30;;
297;SDS011;133;49.626;9.680;2023-06-26T15:42:48;10.30;;;8.43;;
297;SDS011;133;49.626;9.680;2023-06-26T15:45:15;15.97;;;8.80;;
297;SDS011;133;49.626;9.680;2023-06-26T15:47:46;12.20;;;8.43;;
297;SDS011;133;49.626;9.680;2023-06-26T15:50:12;11.13;;;8.70;;
297;SDS011;133;49.626;9.680;2023-06-26T15:52:38;9.73;;;8.30;;
297;SDS011;133;49.626;9.680;2023-06-26T15:55:04;10.93;;;8.03;;
297;SDS011;133;49.626;9.680;2023-06-26T15:57:30;12.27;;;8.83;;
297;SDS011;133;49.626;9.680;2023-06-26T15:59:57;9.30;;;8.60;;
297;SDS011;133;49.626;9.680;2023-06-26T16:02:23;15.90;;;8.60;;
297;SDS011;133;49.626;9.680;2023-06-26T16:04:49;11.37;;;8.57;;
297;SDS011;133;49.626;9.680;2023-06-26T16:07:15;19.40;;;8.10;;
297;SDS011;133;49.626;9.680;2023-06-26T16:09:41;13.73;;;8.20;;
297;SDS011;133;49.626;9.680;2023-06-26T16:12:06;10.43;;;8.03;;
297;SDS011;133;49.626;9.680;2023-06-26T16:14:32;10.53;;;7.43;;